Time;durP1;ratioP1;P1;durP2;ratioP2;P2;SDS_P1;SDS_P2;PMS_P1;PMS_P2;Temp;Humidity;BMP_temperature;BMP_pressure;BME280_temperature;BME280_humidity;BME280_pressure;Samples;Min_cycle;Max_cycle;Signal;HPM_P1;HPM_P2
2023/04/01 00:00:13;;;;;;;0.82;0.80;;;;;;;14.27;58.27;98195.37;4417643;32;33873;-63
2023/04/01 00:02:41;;;;;;;1.45;0.85;;;;;;;14.37;58.06;98196.00;4418681;32;33766;-63
2023/04/01 00:05:10;;;;;;;6.22;1.98;;;;;;;14.13;58.87;98205.03;4417749;32;33550;-62
2023/04/01 00:07:38;;;;;;;1.65;0.88;;;;;;;13.31;61.88;98201.72;4418697;32;33392;-62
2023/04/01 00:10:08;;;;;;;1.48;1.08;;;;;;;13.78;60.48;98209.03;4418734;32;33776;-63
2023/04/01 00:12:36;;;;;;;1.45;0.98;;;;;;;13.98;59.65;98202.22;4415448;32;32844;-64
2023/04/01 00:15:05;;;;;;;2.30;0.75;;;;;;;13.72;60.45;98194.41;4420865;32;33341;-64
2023/04/01 00:17:33;;;;;;;1.55;1.23;;;;;;;13.93;60.17;98197.38;4421073;32;33874;-64
2023/04/01 00:20:02;;;;;;;2.65;1.40;;;;;;;13.78;60.54;98199.09;4413084;32;34052;-63
2023/04/01 00:22:30;;;;;;;1.20;0.90;;;;;;;14.16;59.45;98207.38;4414088;32;35418;-63
2023/04/01 00:24:58;;;;;;;5.62;1.30;;;;;;;14.27;59.17;98196.22;4415146;32;33558;-63
2023/04/01 00:27:25;;;;;;;1.35;0.88;;;;;;;14.50;58.68;98200.78;4414808;32;32703;-63
2023/04/01 00:29:53;;;;;;;1.80;1.25;;;;;;;14.62;58.35;98200.25;4417416;32;34109;-63
2023/04/01 00:32:21;;;;;;;3.00;1.60;;;;;;;14.72;57.95;98191.09;4414423;32;34066;-63
2023/04/01 00:34:52;;;;;;;1.65;0.93;;;;;;;14.62;58.05;98197.56;4416358;32;32471;-63
2023/04/01 00:37:20;;;;;;;1.55;1.12;;;;;;;14.73;57.69;98190.91;4414269;32;33560;-63
2023/04/01 00:39:48;;;;;;;2.47;1.85;;;;;;;14.79;57.54;98187.50;4415403;32;32922;-64
2023/04/01 00:42:16;;;;;;;1.20;0.95;;;;;;;14.78;57.73;98190.38;4414451;32;34007;-64
2023/04/01 00:44:45;;;;;;;3.35;1.77;;;;;;;14.56;58.24;98187.50;4418637;32;33280;-63
2023/04/01 00:47:14;;;;;;;5.78;1.75;;;;;;;14.67;58.08;98195.19;4418908;32;34076;-64
2023/04/01 00:49:45;;;;;;;3.58;1.90;;;;;;;14.84;57.32;98189.69;4417885;32;33339;-63
2023/04/01 00:52:14;;;;;;;3.10;1.20;;;;;;;14.89;57.29;98187.25;4417900;32;32955;-63
2023/04/01 00:54:45;;;;;;;2.28;1.27;;;;;;;14.80;57.60;98189.19;4424945;32;31824;-64
2023/04/01 00:57:16;;;;;;;3.15;1.73;;;;;;;14.72;57.63;98177.63;4418819;32;33588;-64
2023/04/01 00:59:47;;;;;;;1.87;1.35;;;;;;;14.88;57.30;98182.91;4412710;32;34006;-64
2023/04/01 01:02:15;;;;;;;2.75;2.45;;;;;;;14.72;57.35;98185.72;4423060;32;33988;-64
2023/04/01 01:04:43;;;;;;;2.08;1.00;;;;;;;14.77;57.52;98186.03;4429454;32;33584;-64
2023/04/01 01:07:46;;;;;;;1.85;1.35;;;;;;;14.37;58.71;98183.38;4422869;32;33480;-62
2023/04/01 01:10:18;;;;;;;1.75;1.27;;;;;;;13.90;60.45;98196.84;4419764;32;33925;-63
2023/04/01 01:13:01;;;;;;;1.10;1.00;;;;;;;13.99;60.26;98190.44;4418140;32;33825;-62
2023/04/01 01:15:31;;;;;;;2.10;1.87;;;;;;;13.99;60.39;98190.44;4418435;32;34598;-63
2023/04/01 01:18:13;;;;;;;2.53;1.50;;;;;;;14.45;58.85;98182.50;4416380;32;33561;-62
2023/04/01 01:21:05;;;;;;;1.17;1.05;;;;;;;14.53;58.28;98179.78;4415170;32;32883;-65
2023/04/01 01:23:57;;;;;;;1.67;0.95;;;;;;;14.51;58.57;98176.44;4419589;32;35347;-67
2023/04/01 01:26:43;;;;;;;4.05;2.05;;;;;;;14.62;58.14;98175.19;4424068;32;34519;-64
2023/04/01 01:29:33;;;;;;;7.30;1.58;;;;;;;14.59;58.08;98167.47;4419049;32;32478;-65
2023/04/01 01:32:09;;;;;;;3.10;1.05;;;;;;;14.62;57.97;98178.72;4407824;32;34053;-64
2023/04/01 01:35:07;;;;;;;0.88;0.75;;;;;;;14.56;57.92;98186.66;4418932;32;34812;-64
2023/04/01 01:37:34;;;;;;;1.50;1.40;;;;;;;14.59;57.79;98178.22;4417382;32;33580;-65
2023/04/01 01:40:05;;;;;;;1.15;1.05;;;;;;;14.72;57.09;98170.38;4425056;32;32243;-64
2023/04/01 01:42:35;;;;;;;1.92;1.40;;;;;;;14.69;57.22;98176.12;4417391;32;33637;-64
2023/04/01 01:45:05;;;;;;;2.65;1.55;;;;;;;14.58;57.65;98169.31;4417763;32;34063;-64
2023/04/01 01:47:35;;;;;;;2.30;1.23;;;;;;;14.82;56.60;98168.28;4417825;32;33623;-64
2023/04/01 01:50:04;;;;;;;2.83;1.87;;;;;;;14.85;56.56;98173.31;4420329;32;34093;-64
2023/04/01 01:52:32;;;;;;;8.77;1.65;;;;;;;14.92;56.21;98176.12;4408886;32;32755;-64
2023/04/01 01:55:00;;;;;;;2.75;1.52;;;;;;;14.80;56.25;98173.03;4417893;32;34096;-66
2023/04/01 01:57:33;;;;;;;2.30;1.45;;;;;;;14.72;56.46;98174.94;4418906;32;33491;-64
2023/04/01 02:00:12;;;;;;;1.85;0.98;;;;;;;14.83;56.15;98174.50;4417179;32;34998;-64
2023/04/01 02:02:42;;;;;;;1.95;1.20;;;;;;;14.83;56.22;98164.59;4415708;32;34707;-64
2023/04/01 02:05:14;;;;;;;2.92;1.85;;;;;;;14.90;55.58;98162.03;4417540;32;35151;-65
2023/04/01 02:07:47;;;;;;;1.40;1.12;;;;;;;14.89;55.95;98171.09;4412943;32;34389;-69
2023/04/01 02:10:14;;;;;;;1.90;1.12;;;;;;;14.97;55.33;98167.53;4412074;32;32674;-64
2023/04/01 02:12:45;;;;;;;2.15;1.35;;;;;;;14.91;55.64;98164.53;4417855;32;33915;-64
2023/04/01 02:15:14;;;;;;;1.35;1.05;;;;;;;14.78;56.01;98171.53;4423059;32;33626;-64
2023/04/01 02:17:45;;;;;;;2.42;1.85;;;;;;;14.88;55.82;98162.19;4416673;32;33218;-67
2023/04/01 02:20:20;;;;;;;1.95;1.77;;;;;;;14.71;56.15;98157.97;4415349;32;34801;-64
2023/04/01 02:22:51;;;;;;;1.80;1.50;;;;;;;14.92;55.51;98162.66;4415915;32;34078;-64
2023/04/01 02:25:26;;;;;;;1.30;0.95;;;;;;;14.90;55.25;98143.16;4417139;32;35413;-63
2023/04/01 02:27:55;;;;;;;2.23;1.13;;;;;;;14.79;55.71;98147.09;4415567;32;33266;-63
2023/04/01 02:30:23;;;;;;;2.53;1.23;;;;;;;14.79;55.95;98154.34;4416512;32;34095;-63
2023/04/01 02:32:51;;;;;;;1.77;1.45;;;;;;;14.74;55.77;98146.00;4415197;32;34116;-64
2023/04/01 02:35:19;;;;;;;2.72;1.20;;;;;;;14.83;55.64;98150.28;4420241;32;34145;-64
2023/04/01 02:37:49;;;;;;;1.52;1.35;;;;;;;14.84;55.35;98138.50;4416368;32;33383;-63
2023/04/01 02:40:17;;;;;;;2.25;1.75;;;;;;;14.76;55.50;98135.84;4419371;32;34848;-63
2023/04/01 02:42:45;;;;;;;2.42;1.17;;;;;;;14.82;55.24;98137.84;4420243;32;33805;-64
2023/04/01 02:45:14;;;;;;;2.03;1.37;;;;;;;14.78;55.27;98144.59;4417901;32;33964;-63
2023/04/01 02:47:42;;;;;;;2.17;1.33;;;;;;;14.68;55.26;98140.28;4416379;32;33578;-62
2023/04/01 02:50:09;;;;;;;2.33;1.15;;;;;;;14.70;55.22;98148.19;4419510;32;33788;-64
2023/04/01 02:52:37;;;;;;;1.50;1.12;;;;;;;14.57;55.50;98147.94;4416966;32;35208;-64
2023/04/01 02:55:06;;;;;;;2.75;1.70;;;;;;;14.69;55.19;98151.91;4417967;32;34131;-63
2023/04/01 02:57:33;;;;;;;1.65;1.33;;;;;;;14.25;56.50;98146.25;4418068;32;33326;-63
2023/04/01 03:00:01;;;;;;;2.92;1.95;;;;;;;14.43;55.96;98146.84;4415231;32;33366;-64
2023/04/01 03:02:28;;;;;;;4.75;1.75;;;;;;;14.43;56.10;98158.44;4414862;32;33932;-63
2023/04/01 03:04:56;;;;;;;3.65;1.83;;;;;;;14.12;57.05;98153.06;4413401;32;33748;-64
2023/04/01 03:07:24;;;;;;;3.35;1.87;;;;;;;14.48;55.99;98148.97;4416144;32;33353;-64
2023/04/01 03:09:51;;;;;;;3.08;1.85;;;;;;;14.31;56.52;98159.00;4416594;32;32771;-64
2023/04/01 03:12:19;;;;;;;1.92;1.40;;;;;;;14.42;56.17;98143.31;4415647;32;33846;-63
2023/04/01 03:14:49;;;;;;;4.55;2.28;;;;;;;14.47;56.01;98142.75;4415728;32;34896;-67
2023/04/01 03:17:16;;;;;;;2.92;1.67;;;;;;;14.52;55.82;98144.97;4417447;32;33493;-64
2023/04/01 03:19:44;;;;;;;2.45;1.65;;;;;;;14.56;55.44;98147.09;4416489;32;33682;-63
2023/04/01 03:22:12;;;;;;;1.85;1.30;;;;;;;14.44;55.75;98157.44;4412038;32;33838;-62
2023/04/01 03:24:40;;;;;;;1.90;1.35;;;;;;;14.40;55.52;98157.94;4415582;32;33672;-63
2023/04/01 03:27:07;;;;;;;3.45;1.67;;;;;;;14.46;55.28;98159.94;4415230;32;33363;-63
2023/04/01 03:29:35;;;;;;;3.72;1.83;;;;;;;14.55;54.74;98150.81;4419621;32;33743;-66
2023/04/01 03:32:02;;;;;;;1.73;1.48;;;;;;;14.29;55.22;98164.59;4420238;32;33663;-64
2023/04/01 03:34:30;;;;;;;1.23;0.98;;;;;;;14.26;55.13;98162.25;4417449;32;33986;-63
2023/04/01 03:36:58;;;;;;;1.50;1.25;;;;;;;14.32;54.74;98158.03;4416659;32;34086;-63
2023/04/01 03:39:26;;;;;;;1.85;1.17;;;;;;;14.29;54.54;98177.22;4414599;32;35056;-64
2023/04/01 03:41:54;;;;;;;0.57;0.57;;;;;;;14.21;54.79;98167.31;4416175;32;34098;-62
2023/04/01 03:44:22;;;;;;;0.90;0.70;;;;;;;14.24;54.33;98175.03;4414265;32;35043;-64
2023/04/01 03:46:50;;;;;;;0.73;0.73;;;;;;;14.20;54.57;98179.94;4417452;32;34661;-63
2023/04/01 03:49:17;;;;;;;0.70;0.70;;;;;;;14.23;54.15;98176.06;4413098;32;34564;-63
2023/04/01 03:51:45;;;;;;;1.20;1.10;;;;;;;14.24;54.11;98168.81;4415776;32;33897;-63
2023/04/01 03:54:13;;;;;;;0.40;0.40;;;;;;;14.20;53.86;98179.09;4422472;32;34171;-64
2023/04/01 03:56:41;;;;;;;2.42;0.73;;;;;;;14.17;53.81;98185.66;4407056;32;225479;-63
2023/04/01 03:59:08;;;;;;;0.93;0.80;;;;;;;14.08;54.07;98191.25;4418746;32;34461;-63
2023/04/01 04:01:36;;;;;;;4.43;1.05;;;;;;;14.16;53.88;98181.31;4424457;32;34010;-65
2023/04/01 04:04:04;;;;;;;1.25;0.95;;;;;;;13.82;54.70;98183.47;4418348;32;35266;-63
2023/04/01 04:06:32;;;;;;;1.95;1.30;;;;;;;14.02;53.91;98190.09;4414555;32;34351;-65
2023/04/01 04:09:00;;;;;;;0.75;0.68;;;;;;;14.12;53.48;98182.66;4419166;32;33759;-64
2023/04/01 04:11:30;;;;;;;0.80;0.57;;;;;;;13.98;53.77;98181.53;4422313;32;33904;-65
2023/04/01 04:13:58;;;;;;;0.52;0.50;;;;;;;14.01;53.64;98183.03;4419859;32;33979;-62
2023/04/01 04:16:26;;;;;;;1.30;0.82;;;;;;;13.87;53.88;98190.00;4413819;32;33101;-61
2023/04/01 04:18:54;;;;;;;1.55;1.15;;;;;;;13.56;54.59;98183.69;4420457;32;33524;-63
2023/04/01 04:21:21;;;;;;;2.45;0.90;;;;;;;13.69;54.44;98184.84;4418601;32;33343;-61
2023/04/01 04:23:50;;;;;;;0.52;0.52;;;;;;;13.79;54.20;98187.31;4418174;32;34111;-62
2023/04/01 04:26:18;;;;;;;2.37;1.05;;;;;;;13.61;53.92;98190.25;4418474;32;33680;-62
2023/04/01 04:28:47;;;;;;;1.02;0.82;;;;;;;13.65;53.90;98177.31;4419631;32;33714;-61
2023/04/01 04:31:20;;;;;;;0.90;0.60;;;;;;;13.45;53.64;98184.88;4418762;32;33716;-62
2023/04/01 04:33:48;;;;;;;1.17;0.85;;;;;;;13.52;53.51;98177.84;4417637;32;35631;-63
2023/04/01 04:36:16;;;;;;;0.75;0.73;;;;;;;13.54;53.96;98172.28;4421431;32;34580;-62
2023/04/01 04:38:43;;;;;;;0.68;0.60;;;;;;;13.63;53.90;98182.84;4418468;32;34040;-63
2023/04/01 04:41:12;;;;;;;0.50;0.50;;;;;;;13.51;53.81;98174.31;4419196;32;33893;-65
2023/04/01 04:43:41;;;;;;;1.60;0.95;;;;;;;13.34;54.23;98172.66;4420503;32;35177;-62
2023/04/01 04:46:10;;;;;;;1.98;0.75;;;;;;;13.29;54.39;98180.41;4422200;32;33218;-61
2023/04/01 04:48:38;;;;;;;2.78;1.08;;;;;;;13.42;54.17;98178.03;4421400;32;34783;-64
2023/04/01 04:51:05;;;;;;;1.02;0.57;;;;;;;13.20;54.65;98178.69;4417714;32;33597;-63
2023/04/01 04:53:33;;;;;;;0.93;0.68;;;;;;;13.37;54.18;98176.84;4421366;32;34052;-63
2023/04/01 04:56:01;;;;;;;2.17;0.60;;;;;;;13.34;54.00;98178.03;4421904;32;33527;-63
2023/04/01 04:58:29;;;;;;;13.23;1.30;;;;;;;13.17;54.42;98187.09;4421448;32;34734;-64
2023/04/01 05:00:57;;;;;;;1.25;0.93;;;;;;;13.23;54.23;98181.03;4414171;32;33949;-63
2023/04/01 05:03:25;;;;;;;1.42;1.33;;;;;;;13.46;53.81;98176.66;4419137;32;34818;-64
2023/04/01 05:05:53;;;;;;;1.30;0.88;;;;;;;13.48;53.74;98174.66;4425984;32;34610;-63
2023/04/01 05:08:21;;;;;;;0.75;0.75;;;;;;;13.57;53.78;98185.38;4420915;32;32608;-63
2023/04/01 05:10:48;;;;;;;1.45;1.02;;;;;;;13.66;53.69;98177.13;4413064;32;33915;-63
2023/04/01 05:13:16;;;;;;;1.55;0.75;;;;;;;13.68;53.95;98175.09;4421086;32;34986;-64
2023/04/01 05:15:45;;;;;;;1.25;0.95;;;;;;;13.69;54.44;98179.47;4420326;32;33583;-65
2023/04/01 05:18:13;;;;;;;0.85;0.70;;;;;;;13.63;55.08;98179.31;4418720;32;33364;-62
2023/04/01 05:20:49;;;;;;;0.50;0.50;;;;;;;13.67;55.69;98172.56;4421457;32;34977;-64
2023/04/01 05:23:17;;;;;;;1.95;1.65;;;;;;;13.89;55.68;98185.25;4429381;32;35011;-63
2023/04/01 05:25:45;;;;;;;0.80;0.80;;;;;;;14.03;55.61;98180.16;4419279;32;33779;-63
2023/04/01 05:28:13;;;;;;;0.65;0.60;;;;;;;14.07;55.59;98184.22;4419559;32;33550;-64
2023/04/01 05:30:42;;;;;;;1.98;1.27;;;;;;;14.31;54.78;98184.06;4422080;32;33982;-63
2023/04/01 05:33:11;;;;;;;0.70;0.50;;;;;;;14.45;54.60;98185.19;4420353;32;35244;-65
2023/04/01 05:35:39;;;;;;;1.20;0.93;;;;;;;14.45;54.92;98187.87;4432190;32;32236;-65
2023/04/01 05:38:07;;;;;;;0.50;0.50;;;;;;;14.48;54.54;98186.66;4418932;32;32520;-63
2023/04/01 05:40:35;;;;;;;3.22;1.12;;;;;;;14.59;54.19;98189.00;4426208;32;34190;-63
2023/04/01 05:43:02;;;;;;;0.65;0.65;;;;;;;14.66;53.85;98189.97;4422446;32;34056;-62
2023/04/01 05:45:30;;;;;;;1.02;0.73;;;;;;;14.63;54.31;98188.44;4421223;32;34749;-62
2023/04/01 05:48:00;;;;;;;0.50;0.50;;;;;;;14.56;54.31;98192.03;4422024;32;32480;-63
2023/04/01 05:50:28;;;;;;;0.90;0.65;;;;;;;14.85;53.38;98188.66;4428082;32;35137;-62
2023/04/01 05:52:55;;;;;;;0.52;0.40;;;;;;;14.87;53.30;98192.00;4420028;32;35461;-63
2023/04/01 05:55:23;;;;;;;29.45;2.35;;;;;;;14.90;53.44;98194.34;4416478;32;35260;-62
2023/04/01 05:57:50;;;;;;;11.23;1.10;;;;;;;15.00;52.75;98188.72;4421549;32;33659;-63
2023/04/01 06:00:19;;;;;;;1.35;0.85;;;;;;;15.02;52.45;98194.75;4415377;32;35364;-63
2023/04/01 06:02:47;;;;;;;2.95;1.20;;;;;;;15.02;52.65;98192.88;4419380;32;35148;-63
2023/04/01 06:05:21;;;;;;;0.73;0.52;;;;;;;15.10;52.21;98189.31;4422293;32;34388;-62
2023/04/01 06:07:51;;;;;;;1.55;1.10;;;;;;;15.13;52.10;98192.47;4420961;32;33542;-63
2023/04/01 06:10:20;;;;;;;3.30;1.05;;;;;;;15.19;52.18;98196.28;4422380;32;34450;-62
2023/04/01 06:13:00;;;;;;;0.47;0.47;;;;;;;14.85;53.09;98194.87;4419399;32;32874;-62
2023/04/01 06:15:28;;;;;;;1.60;0.82;;;;;;;15.13;52.45;98189.78;4423113;32;34551;-62
2023/04/01 06:18:26;;;;;;;0.52;0.52;;;;;;;15.14;52.32;98187.91;4416232;32;33753;-63
2023/04/01 06:20:53;;;;;;;2.45;1.12;;;;;;;15.09;52.55;98180.37;4422115;32;32471;-63
2023/04/01 06:23:24;;;;;;;2.45;0.80;;;;;;;15.24;51.69;98185.78;4425429;32;34108;-63
2023/04/01 06:26:12;;;;;;;0.70;0.50;;;;;;;15.07;52.01;98184.28;4416397;32;32367;-63
2023/04/01 06:28:40;;;;;;;1.17;0.52;;;;;;;15.26;51.76;98185.63;4416738;32;34030;-63
2023/04/01 06:31:19;;;;;;;0.47;0.47;;;;;;;14.97;52.94;98184.53;4420257;32;32796;-63
2023/04/01 06:34:14;;;;;;;1.65;0.88;;;;;;;15.01;52.24;98185.81;4415574;32;34013;-63
2023/04/01 06:36:53;;;;;;;2.62;1.10;;;;;;;15.20;51.23;98197.97;4415274;32;33687;-62
2023/04/01 06:39:33;;;;;;;0.70;0.50;;;;;;;15.07;51.42;98189.66;4419178;32;35707;-64
2023/04/01 06:42:13;;;;;;;1.15;0.60;;;;;;;15.28;51.17;98194.34;4417277;32;32657;-63
2023/04/01 06:44:44;;;;;;;1.20;0.82;;;;;;;15.13;51.35;98195.16;4416901;32;33253;-63
2023/04/01 06:47:29;;;;;;;1.98;0.70;;;;;;;15.45;51.07;98198.59;4418830;32;35360;-63
2023/04/01 06:50:20;;;;;;;1.55;0.62;;;;;;;15.34;50.98;98201.69;4416088;32;33686;-62
2023/04/01 06:53:12;;;;;;;0.70;0.70;;;;;;;15.69;51.14;98211.00;4413488;32;34274;-63
2023/04/01 06:56:09;;;;;;;0.62;0.52;;;;;;;15.61;51.30;98206.50;4420771;32;32607;-63
2023/04/01 06:58:41;;;;;;;1.15;0.82;;;;;;;15.88;50.07;98206.91;4420428;32;33445;-63
2023/04/01 07:01:24;;;;;;;2.20;0.85;;;;;;;15.96;49.27;98214.09;4418096;32;34608;-63
2023/04/01 07:03:57;;;;;;;0.50;0.50;;;;;;;16.04;49.75;98209.44;4422528;32;33827;-64
2023/04/01 07:06:34;;;;;;;1.05;0.65;;;;;;;16.30;48.84;98202.69;4418441;32;34123;-63
2023/04/01 07:09:06;;;;;;;0.40;0.40;;;;;;;15.96;49.98;98206.84;4415302;32;34439;-63
2023/04/01 07:11:38;;;;;;;0.30;0.30;;;;;;;15.88;50.55;98201.53;4417099;32;33169;-64
2023/04/01 07:14:23;;;;;;;0.77;0.70;;;;;;;16.13;49.76;98199.38;4418164;32;33351;-63
2023/04/01 07:16:56;;;;;;;0.70;0.60;;;;;;;16.38;49.60;98199.91;4426881;32;34142;-63
2023/04/01 07:19:53;;;;;;;0.65;0.47;;;;;;;16.41;49.37;98204.09;4412851;32;33924;-64
2023/04/01 07:22:35;;;;;;;0.50;0.50;;;;;;;16.70;48.90;98209.41;4409840;32;33998;-63
2023/04/01 07:25:12;;;;;;;0.80;0.70;;;;;;;16.89;47.70;98202.59;4435513;32;33938;-63
2023/04/01 07:27:41;;;;;;;3.55;1.00;;;;;;;16.37;48.72;98203.66;4419616;32;35544;-64
2023/04/01 07:30:21;;;;;;;3.83;1.33;;;;;;;16.75;48.01;98208.84;4413288;32;33232;-63
2023/04/01 07:32:59;;;;;;;1.37;0.75;;;;;;;16.50;49.97;98208.34;4422051;32;33644;-63
2023/04/01 07:36:02;;;;;;;0.93;0.60;;;;;;;16.71;49.18;98204.84;4417731;32;34176;-64
2023/04/01 07:38:58;;;;;;;1.52;0.80;;;;;;;17.16;48.22;98203.66;4412819;32;35070;-63
2023/04/01 07:41:58;;;;;;;0.75;0.62;;;;;;;17.32;47.88;98199.00;4418543;32;33654;-63
2023/04/01 07:44:34;;;;;;;1.60;0.95;;;;;;;17.11;47.45;98194.44;4419393;32;33762;-63
2023/04/01 07:47:17;;;;;;;0.32;0.30;;;;;;;17.26;47.01;98184.41;4416403;32;33658;-64
2023/04/01 07:50:06;;;;;;;1.65;0.75;;;;;;;16.56;48.81;98196.78;4418064;32;35065;-63
2023/04/01 07:53:16;;;;;;;0.90;0.37;;;;;;;16.25;47.62;98203.28;4416959;32;31910;-64
2023/04/01 07:56:01;;;;;;;0.75;0.60;;;;;;;15.61;48.49;98205.69;4397570;32;33408;-63
2023/04/01 07:58:33;;;;;;;;;;;;;;;15.39;49.60;98202.00;4419483;32;32732;-63
2023/04/01 08:01:42;;;;;;;1.10;1.05;;;;;;;15.71;48.05;98200.03;4415209;32;35442;-64
2023/04/01 08:04:28;;;;;;;1.45;0.68;;;;;;;16.37;47.01;98209.03;4413328;32;34754;-62
2023/04/01 08:07:00;;;;;;;0.62;0.45;;;;;;;15.95;48.38;98207.00;4414942;32;34897;-63
2023/04/01 08:09:42;;;;;;;1.55;0.80;;;;;;;15.57;48.18;98199.81;4419349;32;33161;-63
2023/04/01 08:12:24;;;;;;;0.80;0.40;;;;;;;15.65;48.33;98211.53;4425528;32;32104;-63
2023/04/01 08:15:26;;;;;;;0.75;0.47;;;;;;;15.80;48.60;98210.56;4417952;32;31897;-63
2023/04/01 08:18:01;;;;;;;0.47;0.37;;;;;;;15.87;48.71;98212.50;4423048;32;33867;-64
2023/04/01 08:20:44;;;;;;;1.20;0.77;;;;;;;16.65;47.08;98219.94;4419774;32;33973;-63
2023/04/01 08:23:20;;;;;;;1.05;0.57;;;;;;;16.00;48.74;98210.00;4417302;32;33536;-64
2023/04/01 08:25:54;;;;;;;1.65;0.52;;;;;;;16.62;48.11;98214.91;4416951;32;34574;-63
2023/04/01 08:28:30;;;;;;;0.65;0.47;;;;;;;16.13;47.90;98214.75;4429641;32;33893;-63
2023/04/01 08:31:06;;;;;;;0.40;0.40;;;;;;;15.79;47.61;98216.13;4419141;32;34250;-63
2023/04/01 08:33:34;;;;;;;1.85;0.43;;;;;;;15.62;47.75;98210.03;4425392;32;34151;-62
2023/04/01 08:36:09;;;;;;;1.98;0.85;;;;;;;15.31;48.76;98213.72;4423488;32;33420;-64
2023/04/01 08:39:14;;;;;;;1.12;0.80;;;;;;;15.16;48.73;98217.37;4421433;32;33724;-64
2023/04/01 08:42:16;;;;;;;1.75;0.50;;;;;;;15.61;47.76;98206.50;4419924;32;36468;-64
2023/04/01 08:45:11;;;;;;;1.77;0.40;;;;;;;16.39;46.51;98211.53;4425102;32;34118;-63
2023/04/01 08:48:00;;;;;;;1.98;0.75;;;;;;;16.20;47.09;98218.34;4410166;32;33635;-63
2023/04/01 08:50:41;;;;;;;3.50;1.23;;;;;;;16.25;46.92;98207.84;4420378;32;35044;-62
2023/04/01 08:53:41;;;;;;;1.65;0.68;;;;;;;15.83;47.07;98215.59;4420951;32;34996;-63
2023/04/01 08:57:03;;;;;;;2.50;0.85;;;;;;;14.93;49.53;98218.22;4420125;32;33752;-63
2023/04/01 08:59:35;;;;;;;1.55;0.68;;;;;;;16.02;47.38;98216.87;4368898;32;33446;-63
2023/04/01 09:02:20;;;;;;;2.28;2.00;;;;;;;15.57;48.41;98215.16;4428584;32;35034;-63
2023/04/01 09:05:26;;;;;;;0.47;0.47;;;;;;;15.83;46.85;98209.34;4414475;32;33734;-63
2023/04/01 09:08:15;;;;;;;1.87;0.57;;;;;;;15.92;47.57;98200.16;4419390;32;34127;-63
2023/04/01 09:11:26;;;;;;;1.73;0.70;;;;;;;15.99;48.75;98206.47;4422768;32;33346;-63
2023/04/01 09:14:46;;;;;;;1.37;0.60;;;;;;;16.42;47.06;98195.78;4394071;32;32174;-63
2023/04/01 09:17:43;;;;;;;1.37;1.10;;;;;;;16.60;45.52;98198.09;4344776;32;33898;-64
2023/04/01 09:20:58;;;;;;;2.40;1.12;;;;;;;16.82;46.24;98200.81;4426142;32;35675;-63
2023/04/01 09:23:48;;;;;;;1.60;0.95;;;;;;;16.67;45.86;98215.19;4358808;32;33748;-63
2023/04/01 09:26:28;;;;;;;0.52;0.52;;;;;;;16.50;47.26;98211.91;4356975;32;33581;-63
2023/04/01 09:29:18;;;;;;;1.35;0.85;;;;;;;16.83;45.41;98206.06;4409719;32;33175;-63
2023/04/01 09:32:08;;;;;;;0.52;0.50;;;;;;;16.79;45.70;98199.38;4417461;32;33652;-63
2023/04/01 09:35:25;;;;;;;1.00;0.50;;;;;;;16.93;44.70;98200.31;4418122;32;34525;-63
2023/04/01 09:37:57;;;;;;;;;;;;;;;15.76;46.63;98200.31;4398319;32;32409;-63
2023/04/01 09:40:44;;;;;;;0.47;0.45;;;;;;;16.02;46.63;98199.88;4418023;32;34364;-62
2023/04/01 09:43:27;;;;;;;1.50;0.68;;;;;;;15.78;47.24;98198.28;4422548;32;34883;-63
2023/04/01 09:46:19;;;;;;;1.12;0.75;;;;;;;16.00;46.87;98194.63;4415742;32;33246;-63
2023/04/01 09:49:13;;;;;;;1.45;0.57;;;;;;;16.13;46.39;98203.94;4419250;32;34563;-64
2023/04/01 09:51:59;;;;;;;0.73;0.55;;;;;;;15.85;45.72;98210.00;4418940;32;34140;-63
2023/04/01 09:55:00;;;;;;;2.35;0.75;;;;;;;15.10;47.59;98211.69;4420485;32;33964;-63
2023/04/01 09:57:56;;;;;;;1.23;0.57;;;;;;;14.79;48.58;98205.53;4419426;32;32443;-63
2023/04/01 10:00:48;;;;;;;1.48;0.93;;;;;;;15.04;49.33;98204.31;4420494;32;33810;-63
2023/04/01 10:03:32;;;;;;;6.60;1.00;;;;;;;15.00;49.74;98211.09;4419587;32;33744;-63
2023/04/01 10:06:27;;;;;;;0.98;0.57;;;;;;;14.50;49.66;98216.94;4416912;32;35467;-64
2023/04/01 10:09:17;;;;;;;4.07;1.05;;;;;;;15.38;47.42;98222.75;4413824;32;33572;-64
2023/04/01 10:12:16;;;;;;;2.22;1.08;;;;;;;15.62;47.27;98212.72;4419859;32;32151;-64
2023/04/01 10:15:12;;;;;;;1.95;0.95;;;;;;;15.28;47.57;98215.91;4413894;32;33834;-62
2023/04/01 10:18:12;;;;;;;1.08;0.82;;;;;;;14.98;49.53;98226.59;4417817;32;34076;-63
2023/04/01 10:20:45;;;;;;;1.12;0.50;;;;;;;14.93;48.53;98218.22;4416119;32;33631;-64
2023/04/01 10:23:21;;;;;;;2.10;0.40;;;;;;;14.87;49.05;98211.69;4414919;32;34584;-64
2023/04/01 10:25:56;;;;;;;1.35;0.65;;;;;;;15.43;47.91;98224.03;4420047;32;34875;-63
2023/04/01 10:28:48;;;;;;;1.70;0.60;;;;;;;15.60;47.88;98214.75;4408759;32;35084;-64
2023/04/01 10:32:02;;;;;;;1.85;0.47;;;;;;;15.51;47.49;98216.72;4415600;32;34425;-65
2023/04/01 10:35:01;;;;;;;0.88;0.52;;;;;;;16.06;45.76;98214.66;4394282;32;33756;-64
2023/04/01 10:37:55;;;;;;;0.65;0.40;;;;;;;15.89;46.28;98210.44;4418331;32;34394;-64
2023/04/01 10:40:42;;;;;;;0.30;0.25;;;;;;;15.76;46.85;98211.97;4416252;32;34127;-64
2023/04/01 10:43:30;;;;;;;2.55;1.08;;;;;;;15.78;47.10;98215.28;4417985;32;33569;-65
2023/04/01 10:46:30;;;;;;;1.75;0.70;;;;;;;16.34;46.14;98214.81;4419981;32;33268;-64
2023/04/01 10:49:11;;;;;;;0.43;0.40;;;;;;;15.99;46.01;98213.72;4386212;32;33730;-62
2023/04/01 10:51:53;;;;;;;1.35;0.52;;;;;;;15.44;46.98;98209.53;4414648;32;34258;-63
2023/04/01 10:54:47;;;;;;;0.30;0.30;;;;;;;16.07;46.17;98210.91;4421376;32;33852;-62
2023/04/01 10:57:42;;;;;;;1.08;0.90;;;;;;;16.26;46.60;98206.81;4413985;32;34035;-63
2023/04/01 11:00:41;;;;;;;0.75;0.57;;;;;;;16.00;47.07;98204.59;4418540;32;35269;-62
2023/04/01 11:03:24;;;;;;;0.90;0.45;;;;;;;16.00;47.08;98208.13;4418146;32;35254;-63
2023/04/01 11:06:18;;;;;;;4.40;0.85;;;;;;;16.13;45.89;98199.38;4419829;32;35078;-63
2023/04/01 11:08:52;;;;;;;1.45;0.60;;;;;;;16.44;44.97;98207.25;4411496;32;33517;-64
2023/04/01 11:11:52;;;;;;;3.83;2.20;;;;;;;16.52;44.77;98199.03;4418608;32;34311;-62
2023/04/01 11:14:31;;;;;;;2.42;0.68;;;;;;;16.47;45.70;98206.88;4416823;32;32383;-64
2023/04/01 11:17:37;;;;;;;0.80;0.57;;;;;;;16.30;45.22;98198.12;4419271;32;34311;-63
2023/04/01 11:20:23;;;;;;;0.57;0.57;;;;;;;16.00;45.06;98205.44;4419154;32;35042;-63
2023/04/01 11:23:45;;;;;;;3.20;0.50;;;;;;;16.02;45.48;98200.69;4420323;32;32718;-63
2023/04/01 11:27:08;;;;;;;4.00;1.12;;;;;;;16.62;44.54;98201.41;4349554;32;35025;-64
2023/04/01 11:29:45;;;;;;;2.30;0.70;;;;;;;16.83;43.41;98203.34;4418186;32;34326;-64
2023/04/01 11:32:47;;;;;;;1.50;1.20;;;;;;;17.14;43.52;98202.16;4420256;32;34402;-64
2023/04/01 11:35:40;;;;;;;0.47;0.47;;;;;;;17.44;42.40;98186.63;4406266;32;35108;-64
2023/04/01 11:38:17;;;;;;;0.60;0.55;;;;;;;16.59;44.04;98212.59;4418253;32;34257;-65
2023/04/01 11:41:05;;;;;;;2.90;0.93;;;;;;;16.84;44.01;98206.88;4419153;32;34678;-64
2023/04/01 11:43:51;;;;;;;2.80;0.40;;;;;;;17.00;43.01;98207.47;4417437;32;33263;-63
2023/04/01 11:46:37;;;;;;;2.12;0.73;;;;;;;17.03;42.90;98210.81;4419337;32;34049;-64
2023/04/01 11:49:19;;;;;;;1.35;0.68;;;;;;;16.79;43.06;98210.19;4417264;32;33726;-64
2023/04/01 11:51:48;;;;;;;0.55;0.47;;;;;;;16.74;42.85;98208.00;4417961;32;32358;-63
2023/04/01 11:54:38;;;;;;;2.30;1.15;;;;;;;16.41;43.64;98213.03;4420427;32;33756;-64
2023/04/01 11:57:30;;;;;;;1.40;0.30;;;;;;;17.28;42.88;98211.25;4418558;32;34000;-62
2023/04/01 12:00:20;;;;;;;0.52;0.30;;;;;;;17.41;41.22;98216.78;4414573;32;32933;-63
2023/04/01 12:03:01;;;;;;;0.32;0.30;;;;;;;17.16;41.76;98217.16;4420413;32;33490;-64
2023/04/01 12:05:52;;;;;;;3.00;1.55;;;;;;;16.79;43.35;98218.28;4423551;32;34673;-64
2023/04/01 12:08:29;;;;;;;1.45;0.80;;;;;;;17.10;42.29;98206.31;4418423;32;34103;-64
2023/04/01 12:11:04;;;;;;;0.62;0.40;;;;;;;16.73;43.51;98210.91;4421027;32;34170;-62
2023/04/01 12:13:51;;;;;;;1.17;0.75;;;;;;;16.45;43.29;98217.00;4415264;32;34561;-63
2023/04/01 12:16:26;;;;;;;0.22;0.22;;;;;;;16.34;43.28;98214.81;4418442;32;33189;-64
2023/04/01 12:19:25;;;;;;;1.55;0.40;;;;;;;16.53;42.49;98210.66;4420296;32;34020;-63
2023/04/01 12:21:59;;;;;;;2.60;0.73;;;;;;;17.25;41.25;98204.38;4414727;32;33158;-63
2023/04/01 12:25:01;;;;;;;1.35;0.68;;;;;;;17.93;41.04;98212.81;4420952;32;33572;-64